Time;durP1;ratioP1;P1;durP2;ratioP2;P2;SDS_P1;SDS_P2;PMS_P1;PMS_P2;Temp;Humidity;BMP_temperature;BMP_pressure;BME280_temperature;BME280_humidity;BME280_pressure;Samples;Min_cycle;Max_cycle;Signal;HPM_P1;HPM_P2
2021/07/07 00:00:55;;;;;;;3.50;1.00;;;17.80;83.40;;;;;;4994371;28;20033;-76
2021/07/07 00:03:21;;;;;;;3.10;1.17;;;17.90;83.40;;;;;;4976150;28;20034;-76
2021/07/07 00:05:47;;;;;;;1.08;0.85;;;17.80;83.30;;;;;;4993983;28;20030;-76
2021/07/07 00:08:12;;;;;;;1.30;0.85;;;17.90;83.40;;;;;;4993531;28;20497;-76
2021/07/07 00:10:38;;;;;;;3.03;1.13;;;17.90;83.40;;;;;;4976718;28;20053;-76
2021/07/07 00:13:04;;;;;;;4.03;1.25;;;17.90;83.40;;;;;;4975996;28;20578;-76
2021/07/07 00:15:32;;;;;;;2.10;0.98;;;17.90;83.20;;;;;;4976624;28;20061;-75
2021/07/07 00:18:02;;;;;;;1.85;1.05;;;17.90;83.20;;;;;;4976299;28;20026;-75
2021/07/07 00:20:36;;;;;;;5.00;1.10;;;17.80;83.30;;;;;;4992966;28;20057;-73
2021/07/07 00:23:02;;;;;;;2.30;1.13;;;17.80;83.50;;;;;;4975943;28;20029;-74
2021/07/07 00:25:28;;;;;;;2.90;1.00;;;17.70;83.70;;;;;;4993781;28;20078;-77
2021/07/07 00:27:54;;;;;;;1.67;1.00;;;17.70;83.80;;;;;;4976294;28;20030;-77
2021/07/07 00:30:20;;;;;;;4.53;1.15;;;17.70;84.00;;;;;;4975406;28;20036;-76
2021/07/07 00:32:45;;;;;;;1.38;0.98;;;17.70;84.00;;;;;;4993658;28;20029;-74
2021/07/07 00:35:12;;;;;;;1.33;0.90;;;17.70;84.10;;;;;;4992989;28;20344;-74
2021/07/07 00:37:37;;;;;;;2.20;0.90;;;17.60;84.10;;;;;;4976159;28;20027;-74
2021/07/07 00:40:04;;;;;;;2.28;1.10;;;17.60;84.30;;;;;;4976165;28;20481;-75
2021/07/07 00:42:30;;;;;;;2.83;0.85;;;17.60;84.30;;;;;;4993178;28;20105;-75
2021/07/07 00:44:56;;;;;;;2.10;0.95;;;17.50;84.40;;;;;;4975934;28;20023;-74
2021/07/07 00:47:22;;;;;;;4.90;0.90;;;17.50;84.60;;;;;;4975370;28;20540;-75
2021/07/07 00:49:48;;;;;;;1.90;0.93;;;17.50;84.70;;;;;;4993294;28;20026;-74
2021/07/07 00:52:13;;;;;;;2.55;1.00;;;17.40;84.90;;;;;;4992624;28;20077;-75
2021/07/07 00:54:39;;;;;;;0.88;0.88;;;17.40;84.90;;;;;;4993199;28;20030;-75
2021/07/07 00:57:05;;;;;;;2.58;1.63;;;17.40;85.10;;;;;;4975161;28;20026;-77
2021/07/07 00:59:32;;;;;;;2.72;1.20;;;17.30;85.10;;;;;;4993152;28;20061;-75
2021/07/07 01:02:03;;;;;;;4.18;1.13;;;17.30;85.30;;;;;;4975569;28;20030;-75
2021/07/07 01:04:29;;;;;;;3.67;0.93;;;17.30;85.40;;;;;;4992593;28;20029;-74
2021/07/07 01:06:54;;;;;;;2.55;1.40;;;17.30;85.40;;;;;;4993057;28;20022;-75
2021/07/07 01:09:20;;;;;;;3.72;1.30;;;17.20;85.50;;;;;;4992418;28;20092;-75
2021/07/07 01:11:46;;;;;;;1.98;1.20;;;17.20;85.70;;;;;;4975379;28;20031;-75
2021/07/07 01:14:12;;;;;;;1.95;1.00;;;17.20;85.80;;;;;;4992338;28;20528;-75
2021/07/07 01:16:42;;;;;;;1.48;1.02;;;17.20;86.00;;;;;;4975574;28;20387;-75
2021/07/07 01:19:09;;;;;;;2.10;0.90;;;17.10;86.00;;;;;;4992094;28;20399;-76
2021/07/07 01:21:36;;;;;;;3.33;1.25;;;17.10;86.00;;;;;;4975224;28;20026;-76
2021/07/07 01:24:02;;;;;;;2.72;0.90;;;17.10;86.10;;;;;;4975357;28;20029;-76
2021/07/07 01:26:27;;;;;;;5.85;1.25;;;17.10;86.20;;;;;;4974820;28;20389;-75
2021/07/07 01:28:53;;;;;;;0.98;0.85;;;17.10;86.20;;;;;;4975290;28;20048;-77
2021/07/07 01:31:19;;;;;;;5.28;1.10;;;17.10;86.30;;;;;;4973796;28;20517;-75
2021/07/07 01:33:46;;;;;;;3.35;1.15;;;17.10;86.40;;;;;;4992326;28;20052;-74
2021/07/07 01:36:12;;;;;;;2.42;0.98;;;17.00;86.40;;;;;;4992060;28;20046;-75
2021/07/07 01:38:37;;;;;;;1.77;1.00;;;17.00;86.40;;;;;;4992365;28;20069;-75
2021/07/07 01:41:03;;;;;;;2.13;1.42;;;17.00;86.50;;;;;;4992766;28;20041;-74
2021/07/07 01:43:29;;;;;;;1.77;1.25;;;17.00;86.60;;;;;;4974451;28;20023;-75
2021/07/07 01:45:55;;;;;;;1.67;1.05;;;16.90;86.70;;;;;;4974992;28;20459;-76
2021/07/07 01:48:21;;;;;;;3.50;1.05;;;16.90;87.30;;;;;;4991951;28;20027;-75
2021/07/07 01:50:46;;;;;;;3.72;1.33;;;16.90;86.70;;;;;;4974874;28;20018;-74
2021/07/07 01:53:12;;;;;;;2.10;1.15;;;16.90;86.80;;;;;;4991905;28;20030;-75
2021/07/07 01:55:38;;;;;;;3.70;1.27;;;16.90;86.80;;;;;;4975090;28;20524;-74
2021/07/07 01:58:04;;;;;;;2.58;1.30;;;16.80;86.80;;;;;;4974933;28;20058;-74
2021/07/07 02:00:32;;;;;;;3.00;1.50;;;16.80;86.90;;;;;;4974249;28;20034;-74
2021/07/07 02:02:59;;;;;;;4.82;1.67;;;16.80;87.00;;;;;;4992421;28;20018;-74
2021/07/07 02:05:31;;;;;;;1.92;1.23;;;16.80;87.10;;;;;;4974266;28;20030;-74
2021/07/07 02:07:58;;;;;;;2.67;1.30;;;16.80;87.20;;;;;;4992389;28;20019;-74
2021/07/07 02:10:24;;;;;;;4.93;1.42;;;16.70;87.10;;;;;;4991683;28;20030;-75
2021/07/07 02:12:50;;;;;;;3.08;1.35;;;16.70;87.20;;;;;;4974914;28;20506;-74
2021/07/07 02:15:24;;;;;;;1.83;1.17;;;16.70;87.20;;;;;;4991402;28;20069;-75
2021/07/07 02:17:51;;;;;;;3.10;1.35;;;16.70;87.30;;;;;;4975022;28;20033;-74
2021/07/07 02:20:19;;;;;;;2.85;1.30;;;16.60;87.20;;;;;;4973926;28;20050;-74
2021/07/07 02:22:46;;;;;;;3.22;1.38;;;16.60;87.30;;;;;;4991884;28;20026;-74
2021/07/07 02:25:17;;;;;;;3.25;1.70;;;16.60;87.30;;;;;;4991322;28;20059;-76
2021/07/07 02:27:42;;;;;;;3.58;1.15;;;16.60;87.40;;;;;;4974797;28;20023;-75
2021/07/07 02:30:11;;;;;;;2.53;1.27;;;16.60;87.40;;;;;;4974351;28;20029;-74
2021/07/07 02:32:37;;;;;;;3.33;1.55;;;16.60;87.60;;;;;;4974704;28;20117;-75
2021/07/07 02:35:12;;;;;;;2.75;1.52;;;16.50;87.50;;;;;;4991943;28;20352;-75
2021/07/07 02:37:39;;;;;;;3.63;1.33;;;16.50;87.70;;;;;;4975033;28;20022;-75
2021/07/07 02:40:06;;;;;;;3.33;1.30;;;16.50;87.70;;;;;;4974518;28;20023;-74
2021/07/07 02:42:33;;;;;;;3.20;1.58;;;16.40;87.70;;;;;;4974575;28;20481;-75
2021/07/07 02:44:59;;;;;;;2.60;1.55;;;16.50;87.90;;;;;;4995575;28;20035;-75
2021/07/07 02:47:25;;;;;;;3.40;1.60;;;16.50;87.90;;;;;;4994782;28;20129;-76
2021/07/07 02:49:50;;;;;;;3.17;1.52;;;16.40;87.90;;;;;;4978049;28;20359;-75
2021/07/07 02:52:16;;;;;;;3.42;1.75;;;16.40;87.90;;;;;;4994791;28;20031;-76
2021/07/07 02:54:42;;;;;;;3.90;1.60;;;16.40;88.00;;;;;;4995475;28;20023;-75
2021/07/07 02:57:07;;;;;;;6.65;1.80;;;16.40;88.00;;;;;;4978083;28;20109;-75
2021/07/07 02:59:33;;;;;;;2.30;1.77;;;16.40;88.20;;;;;;4977410;28;20482;-75
2021/07/07 03:01:59;;;;;;;5.05;2.08;;;16.40;88.20;;;;;;4977826;28;20081;-75
2021/07/07 03:04:24;;;;;;;4.97;1.90;;;16.40;88.20;;;;;;4976898;28;20485;-75
2021/07/07 03:06:50;;;;;;;4.43;1.83;;;16.40;88.20;;;;;;4977759;28;20019;-75
2021/07/07 03:09:15;;;;;;;4.75;1.70;;;16.40;88.30;;;;;;4977109;28;20055;-76
2021/07/07 03:11:41;;;;;;;4.43;1.80;;;16.40;88.20;;;;;;4977588;28;20029;-76
2021/07/07 03:14:07;;;;;;;5.07;2.05;;;16.40;88.20;;;;;;4995086;28;20037;-75
2021/07/07 03:16:32;;;;;;;4.13;2.05;;;16.40;88.20;;;;;;4976903;28;20030;-75
2021/07/07 03:18:58;;;;;;;3.90;1.90;;;16.50;88.10;;;;;;4994588;28;20047;-75
2021/07/07 03:21:24;;;;;;;7.35;2.22;;;16.50;87.90;;;;;;4994366;28;20113;-76
2021/07/07 03:23:49;;;;;;;4.82;1.92;;;16.50;87.90;;;;;;4994605;28;20034;-76
2021/07/07 03:26:15;;;;;;;3.15;1.80;;;16.50;87.80;;;;;;4994496;28;20029;-78
2021/07/07 03:28:41;;;;;;;2.88;1.88;;;16.60;87.90;;;;;;4977446;28;20023;-76
2021/07/07 03:31:07;;;;;;;3.90;1.90;;;16.50;88.00;;;;;;4994688;28;20205;-76
2021/07/07 03:33:33;;;;;;;2.55;1.58;;;16.50;88.10;;;;;;4976669;28;20026;-76
2021/07/07 03:36:01;;;;;;;2.75;1.70;;;16.40;88.20;;;;;;4977197;28;20085;-75
2021/07/07 03:38:27;;;;;;;5.63;2.38;;;16.40;88.20;;;;;;4994109;28;20497;-75
2021/07/07 03:40:53;;;;;;;3.60;1.77;;;16.40;88.30;;;;;;4977109;28;20053;-75
2021/07/07 03:43:19;;;;;;;2.90;1.73;;;16.40;88.30;;;;;;4976542;28;20053;-75
2021/07/07 03:45:45;;;;;;;4.82;1.70;;;16.50;88.30;;;;;;4976779;28;20113;-75
2021/07/07 03:48:11;;;;;;;2.90;1.75;;;16.50;88.20;;;;;;4976924;28;20023;-75
2021/07/07 03:50:37;;;;;;;4.03;1.60;;;16.50;88.10;;;;;;4993766;28;20023;-75
2021/07/07 03:53:04;;;;;;;3.25;1.80;;;16.60;88.10;;;;;;4994131;28;20030;-75
2021/07/07 03:55:31;;;;;;;2.90;1.80;;;16.60;88.00;;;;;;4992943;28;20029;-75
2021/07/07 03:57:57;;;;;;;4.07;1.60;;;16.70;88.00;;;;;;4994277;28;20061;-75
2021/07/07 04:00:26;;;;;;;4.57;1.95;;;16.80;87.90;;;;;;4993405;28;20058;-75
2021/07/07 04:02:52;;;;;;;2.65;1.65;;;16.70;87.80;;;;;;4994638;28;20033;-75
2021/07/07 04:05:19;;;;;;;2.90;1.80;;;16.80;87.90;;;;;;4993794;28;20481;-77
2021/07/07 04:07:45;;;;;;;3.47;1.92;;;16.70;88.00;;;;;;4993861;28;20022;-75
2021/07/07 04:10:12;;;;;;;3.90;1.90;;;16.70;88.20;;;;;;4976509;28;20374;-75
2021/07/07 04:12:43;;;;;;;3.47;1.83;;;16.70;88.30;;;;;;4993376;28;20579;-75
2021/07/07 04:15:10;;;;;;;4.75;2.38;;;16.70;88.40;;;;;;4976525;28;20061;-75
2021/07/07 04:17:36;;;;;;;6.15;3.97;;;16.60;88.40;;;;;;4975836;28;20063;-75
2021/07/07 04:20:05;;;;;;;6.03;4.70;;;16.60;88.50;;;;;;4993919;28;20073;-74
2021/07/07 04:22:30;;;;;;;5.70;3.22;;;16.60;88.70;;;;;;4993579;28;20033;-74
2021/07/07 04:24:56;;;;;;;4.78;2.50;;;16.60;88.70;;;;;;4976385;28;20030;-74
2021/07/07 04:27:22;;;;;;;5.25;2.30;;;16.60;88.70;;;;;;4993157;28;20414;-75
2021/07/07 04:29:47;;;;;;;4.53;2.30;;;16.60;88.70;;;;;;4976184;28;20025;-74
2021/07/07 04:32:16;;;;;;;3.33;2.17;;;16.60;88.90;;;;;;4993377;28;20030;-75
2021/07/07 04:34:41;;;;;;;4.15;2.13;;;16.60;88.90;;;;;;4975495;28;20053;-75
2021/07/07 04:37:07;;;;;;;3.55;1.90;;;16.60;88.90;;;;;;4993572;28;20443;-75
2021/07/07 04:39:33;;;;;;;4.45;2.00;;;16.50;89.00;;;;;;4992671;28;20076;-75
2021/07/07 04:41:58;;;;;;;1.67;1.40;;;16.50;89.20;;;;;;4993411;28;20045;-74
2021/07/07 04:44:24;;;;;;;6.47;3.30;;;16.50;89.10;;;;;;4975325;28;20487;-75
2021/07/07 04:46:49;;;;;;;6.10;2.60;;;16.50;89.30;;;;;;4976007;28;20022;-75
2021/07/07 04:49:15;;;;;;;4.55;2.30;;;16.50;89.40;;;;;;4975831;28;20121;-75
2021/07/07 04:51:41;;;;;;;5.32;2.38;;;16.50;89.30;;;;;;4975173;28;20639;-75
2021/07/07 04:54:06;;;;;;;4.07;2.40;;;16.60;89.40;;;;;;4975816;28;20033;-75
2021/07/07 04:56:32;;;;;;;3.90;2.00;;;16.60;89.30;;;;;;4975181;28;20030;-76
2021/07/07 04:58:58;;;;;;;2.92;1.75;;;16.60;89.30;;;;;;4975732;28;20022;-74
2021/07/07 05:01:23;;;;;;;3.47;2.05;;;16.60;89.20;;;;;;4975196;28;20074;-76
2021/07/07 05:03:49;;;;;;;3.22;1.73;;;16.70;89.70;;;;;;4975769;28;20022;-75
2021/07/07 05:06:15;;;;;;;4.05;1.98;;;16.80;89.00;;;;;;4993154;28;20109;-74
2021/07/07 05:08:40;;;;;;;4.45;1.95;;;16.90;88.90;;;;;;4992465;28;20034;-74
2021/07/07 05:11:06;;;;;;;5.15;1.92;;;17.00;88.80;;;;;;4992978;28;20124;-74
2021/07/07 05:13:32;;;;;;;6.00;1.80;;;17.00;88.50;;;;;;4992160;28;20364;-74
2021/07/07 05:15:59;;;;;;;4.78;1.98;;;17.10;88.40;;;;;;4993118;28;20026;-75
2021/07/07 05:18:24;;;;;;;3.10;1.73;;;17.20;88.40;;;;;;4992200;28;20022;-74
2021/07/07 05:20:50;;;;;;;5.28;2.00;;;17.30;88.20;;;;;;4975258;28;20505;-74
2021/07/07 05:23:16;;;;;;;3.30;1.80;;;17.30;88.10;;;;;;4992752;28;20034;-75
2021/07/07 05:25:42;;;;;;;4.13;2.20;;;17.40;88.00;;;;;;4974713;28;20065;-74
2021/07/07 05:28:08;;;;;;;4.32;1.70;;;17.40;87.70;;;;;;4975260;28;20045;-75
2021/07/07 05:30:34;;;;;;;3.72;2.10;;;17.50;87.70;;;;;;4992029;28;20060;-76
2021/07/07 05:33:01;;;;;;;6.03;2.20;;;17.50;87.60;;;;;;4974955;28;20026;-75
2021/07/07 05:35:27;;;;;;;2.67;1.88;;;17.60;88.20;;;;;;4992046;28;20022;-76
2021/07/07 05:37:53;;;;;;;2.95;1.65;;;17.60;87.40;;;;;;4992349;28;20044;-76
2021/07/07 05:40:20;;;;;;;7.95;2.00;;;17.60;87.40;;;;;;4992890;28;20077;-76
2021/07/07 05:42:52;;;;;;;5.40;2.15;;;17.70;87.40;;;;;;4991648;28;20390;-76
2021/07/07 05:45:19;;;;;;;3.35;2.00;;;17.70;87.30;;;;;;4992681;28;20018;-76
2021/07/07 05:47:45;;;;;;;4.70;2.33;;;17.80;87.30;;;;;;4974552;28;20429;-75
2021/07/07 05:50:11;;;;;;;2.85;1.85;;;17.80;87.20;;;;;;4974982;28;20119;-75
2021/07/07 05:52:36;;;;;;;4.88;1.90;;;17.90;87.20;;;;;;4974467;28;20428;-76
2021/07/07 05:55:03;;;;;;;4.15;2.08;;;17.90;87.10;;;;;;4975063;28;20453;-75
2021/07/07 05:57:37;;;;;;;3.88;2.42;;;17.90;86.90;;;;;;4974336;28;20113;-76
2021/07/07 06:00:09;;;;;;;6.28;2.35;;;18.00;86.90;;;;;;4974907;28;20378;-75
2021/07/07 06:02:36;;;;;;;5.93;1.95;;;18.00;86.80;;;;;;4974350;28;20031;-75
2021/07/07 06:05:02;;;;;;;7.22;2.05;;;18.00;86.70;;;;;;4974830;28;20173;-74
2021/07/07 06:07:28;;;;;;;5.65;2.22;;;18.00;86.60;;;;;;4991473;28;20026;-76
2021/07/07 06:09:54;;;;;;;7.03;2.53;;;18.10;86.60;;;;;;4974914;28;20041;-74
2021/07/07 06:12:19;;;;;;;4.00;1.90;;;18.10;86.50;;;;;;4974744;28;20037;-75
2021/07/07 06:14:45;;;;;;;4.70;2.10;;;18.10;86.40;;;;;;4991961;28;20502;-75
2021/07/07 06:17:10;;;;;;;4.47;2.40;;;18.10;86.30;;;;;;4992308;28;20023;-74
2021/07/07 06:19:36;;;;;;;5.50;2.50;;;18.10;86.30;;;;;;4995113;28;20049;-76
2021/07/07 06:22:02;;;;;;;4.68;2.33;;;18.20;86.30;;;;;;4995847;28;20026;-75
2021/07/07 06:24:28;;;;;;;6.00;1.98;;;18.20;86.20;;;;;;4978189;28;20466;-78
2021/07/07 06:26:54;;;;;;;4.07;1.73;;;18.20;86.20;;;;;;4995720;28;20022;-75
2021/07/07 06:29:20;;;;;;;7.93;2.65;;;18.30;86.10;;;;;;4995795;28;20105;-74
2021/07/07 06:31:46;;;;;;;5.90;2.45;;;18.30;86.00;;;;;;4994888;28;20474;-75
2021/07/07 06:34:12;;;;;;;5.07;1.80;;;18.40;85.90;;;;;;4978409;28;20033;-75
2021/07/07 06:36:38;;;;;;;3.75;2.10;;;18.40;85.90;;;;;;4977663;28;20030;-74
2021/07/07 06:39:05;;;;;;;5.28;2.38;;;18.50;85.80;;;;;;4978147;28;20088;-74
2021/07/07 06:41:32;;;;;;;4.97;2.15;;;18.50;85.60;;;;;;4995071;28;20053;-74
2021/07/07 06:43:58;;;;;;;5.35;2.40;;;18.60;85.50;;;;;;4978182;28;20029;-75
2021/07/07 06:46:24;;;;;;;5.53;1.98;;;18.70;85.40;;;;;;4978071;28;20041;-75
2021/07/07 06:48:49;;;;;;;6.78;2.70;;;18.70;85.40;;;;;;4977478;28;20035;-75
2021/07/07 06:51:15;;;;;;;3.45;1.95;;;18.70;85.30;;;;;;4995144;28;20033;-75
2021/07/07 06:53:41;;;;;;;5.28;2.15;;;18.70;85.50;;;;;;4994731;28;20039;-75
2021/07/07 06:56:07;;;;;;;6.15;2.42;;;18.70;85.50;;;;;;4978092;28;20084;-74
2021/07/07 06:58:32;;;;;;;4.88;2.58;;;18.70;85.60;;;;;;4994782;28;20022;-75
2021/07/07 07:00:58;;;;;;;4.93;2.33;;;18.70;85.50;;;;;;4977870;28;20035;-75
2021/07/07 07:03:24;;;;;;;9.68;2.67;;;18.70;85.50;;;;;;4995337;28;20022;-74
2021/07/07 07:05:50;;;;;;;5.38;2.30;;;18.70;85.60;;;;;;4994593;28;20026;-75
2021/07/07 07:08:18;;;;;;;5.63;2.30;;;18.60;85.60;;;;;;4977716;28;20026;-75
2021/07/07 07:10:44;;;;;;;5.40;2.80;;;18.60;85.80;;;;;;4976943;28;20137;-74
2021/07/07 07:13:10;;;;;;;6.55;2.45;;;18.60;85.90;;;;;;4995019;28;20036;-75
2021/07/07 07:15:36;;;;;;;5.10;2.22;;;18.50;86.10;;;;;;4976867;28;20443;-75
2021/07/07 07:18:02;;;;;;;4.32;2.30;;;18.50;86.10;;;;;;4995221;28;20057;-75
2021/07/07 07:20:30;;;;;;;8.68;2.55;;;18.50;86.30;;;;;;4994496;28;20082;-75
2021/07/07 07:22:59;;;;;;;6.32;2.17;;;18.50;86.20;;;;;;4976876;28;20422;-75
2021/07/07 07:25:25;;;;;;;7.97;2.83;;;18.40;86.10;;;;;;4977257;28;20352;-74
2021/07/07 07:27:52;;;;;;;5.78;2.00;;;18.50;86.20;;;;;;4976718;28;20383;-75
2021/07/07 07:30:18;;;;;;;7.95;2.85;;;18.40;86.20;;;;;;4976138;28;20045;-75
2021/07/07 07:32:46;;;;;;;7.00;2.25;;;18.50;86.10;;;;;;4976522;28;20066;-75
2021/07/07 07:35:17;;;;;;;3.30;1.70;;;18.50;85.80;;;;;;4977156;28;20030;-75
2021/07/07 07:37:51;;;;;;;3.13;1.83;;;18.60;85.50;;;;;;4976712;28;20113;-75
2021/07/07 07:40:24;;;;;;;5.00;2.45;;;18.70;85.20;;;;;;4994620;28;20098;-75
2021/07/07 07:42:50;;;;;;;7.40;2.38;;;18.70;84.90;;;;;;4976457;28;20014;-74
2021/07/07 07:45:16;;;;;;;4.68;1.80;;;18.80;84.80;;;;;;4994420;28;20066;-75
2021/07/07 07:47:43;;;;;;;4.07;2.28;;;18.80;84.60;;;;;;4976432;28;20116;-75
2021/07/07 07:50:12;;;;;;;4.70;2.00;;;18.80;84.50;;;;;;4994431;28;20023;-75
2021/07/07 07:52:39;;;;;;;4.88;2.13;;;18.90;83.90;;;;;;4976183;28;20034;-76
2021/07/07 07:55:05;;;;;;;4.28;1.85;;;19.00;83.80;;;;;;4994361;28;20030;-74
2021/07/07 07:57:36;;;;;;;5.65;2.05;;;19.00;83.40;;;;;;4994560;28;20027;-75
2021/07/07 08:00:08;;;;;;;4.65;2.20;;;19.10;83.30;;;;;;4994251;28;20462;-75
2021/07/07 08:02:33;;;;;;;3.90;1.95;;;19.10;83.10;;;;;;4976743;28;20454;-74
2021/07/07 08:04:59;;;;;;;3.20;1.70;;;19.20;82.90;;;;;;4993773;28;20507;-75
2021/07/07 08:07:28;;;;;;;4.13;1.83;;;19.20;82.70;;;;;;4994119;28;20031;-75
2021/07/07 08:09:54;;;;;;;3.60;1.75;;;19.30;82.60;;;;;;4975991;28;20133;-75
2021/07/07 08:12:20;;;;;;;4.90;1.98;;;19.30;83.10;;;;;;4993816;28;20037;-75
2021/07/07 08:14:49;;;;;;;3.08;1.70;;;19.30;82.40;;;;;;4993448;28;20109;-75
2021/07/07 08:17:15;;;;;;;2.83;1.63;;;19.30;82.30;;;;;;4976390;28;20097;-75
2021/07/07 08:19:41;;;;;;;3.92;2.00;;;19.40;82.10;;;;;;4963385;28;20452;-75
2021/07/07 08:22:07;;;;;;;4.28;2.00;;;19.40;81.60;;;;;;4953888;29;20054;-75
2021/07/07 08:24:32;;;;;;;3.72;1.77;;;19.50;81.40;;;;;;4953805;29;20472;-75
2021/07/07 08:26:58;;;;;;;4.15;1.70;;;19.50;81.10;;;;;;4953177;29;20110;-74
2021/07/07 08:29:24;;;;;;;4.55;1.27;;;19.50;81.00;;;;;;4953705;29;20471;-75
2021/07/07 08:31:49;;;;;;;4.22;1.55;;;19.50;80.60;;;;;;4954247;29;20446;-75
2021/07/07 08:34:15;;;;;;;4.20;1.60;;;19.50;80.40;;;;;;4953676;29;20054;-75
2021/07/07 08:36:41;;;;;;;4.70;1.85;;;19.60;80.30;;;;;;4954291;29;20475;-75
2021/07/07 08:39:06;;;;;;;2.35;1.50;;;19.70;80.20;;;;;;4954856;29;20034;-75
2021/07/07 08:41:33;;;;;;;3.70;1.70;;;19.70;79.90;;;;;;4954493;28;20455;-74
2021/07/07 08:43:58;;;;;;;7.75;1.95;;;19.70;79.80;;;;;;4954155;28;20034;-74
2021/07/07 08:46:25;;;;;;;3.72;1.52;;;19.80;79.50;;;;;;4954499;28;20027;-75
2021/07/07 08:48:50;;;;;;;2.33;1.50;;;19.90;79.40;;;;;;4952577;29;20051;-74
2021/07/07 08:51:16;;;;;;;6.18;2.05;;;19.90;79.20;;;;;;4954425;29;20070;-75
2021/07/07 08:53:44;;;;;;;2.13;1.30;;;20.00;79.00;;;;;;4952598;29;20390;-75
2021/07/07 08:56:10;;;;;;;3.78;1.75;;;20.00;78.60;;;;;;4953273;29;20105;-75
2021/07/07 08:58:35;;;;;;;3.88;1.52;;;20.10;78.30;;;;;;4953154;29;20456;-75
2021/07/07 09:01:02;;;;;;;3.67;1.42;;;20.10;78.10;;;;;;4952201;29;20027;-75
2021/07/07 09:03:28;;;;;;;2.65;1.80;;;20.00;77.90;;;;;;4954467;28;20531;-75
2021/07/07 09:06:03;;;;;;;4.20;1.60;;;20.00;77.90;;;;;;4952185;29;20114;-75
2021/07/07 09:08:35;;;;;;;4.60;1.73;;;20.00;77.80;;;;;;4953023;29;20034;-75
2021/07/07 09:11:20;;;;;;;2.15;1.15;;;20.10;77.30;;;;;;4952000;29;20037;-75
2021/07/07 09:14:07;;;;;;;2.75;1.23;;;20.20;77.30;;;;;;4953640;28;20086;-75
2021/07/07 09:16:59;;;;;;;2.22;1.30;;;20.40;76.70;;;;;;4953029;29;20054;-75
2021/07/07 09:19:26;;;;;;;2.70;1.40;;;20.60;75.70;;;;;;4952501;28;20487;-75
2021/07/07 09:21:55;;;;;;;4.20;1.70;;;20.60;75.10;;;;;;4952283;29;20031;-75
2021/07/07 09:24:25;;;;;;;3.25;1.20;;;20.70;74.50;;;;;;4954012;28;20030;-75
2021/07/07 09:27:01;;;;;;;3.47;1.60;;;20.80;74.00;;;;;;4953206;28;20058;-76
2021/07/07 09:29:34;;;;;;;5.15;1.33;;;20.80;73.30;;;;;;4952713;29;20023;-76
2021/07/07 09:32:20;;;;;;;3.10;1.55;;;20.70;73.40;;;;;;4952031;29;20078;-75
2021/07/07 09:34:49;;;;;;;2.97;1.17;;;20.80;73.30;;;;;;4951913;29;20027;-76
2021/07/07 09:37:26;;;;;;;2.25;1.38;;;20.80;73.60;;;;;;4952339;29;20023;-76
2021/07/07 09:39:54;;;;;;;6.65;1.48;;;20.80;73.10;;;;;;4953410;28;20027;-75
2021/07/07 09:42:32;;;;;;;3.45;1.08;;;20.80;73.00;;;;;;4952768;29;20074;-75
2021/07/07 09:44:59;;;;;;;2.42;1.52;;;21.00;73.00;;;;;;4952220;29;20082;-74
2021/07/07 09:47:26;;;;;;;3.53;1.42;;;21.20;71.80;;;;;;4952546;29;20031;-76
2021/07/07 09:49:53;;;;;;;1.50;1.08;;;21.40;71.50;;;;;;4951887;29;20031;-75
2021/07/07 09:52:24;;;;;;;3.13;1.15;;;21.40;70.10;;;;;;4952771;28;20086;-76
2021/07/07 09:54:50;;;;;;;2.50;1.10;;;21.50;70.00;;;;;;4955962;29;20086;-75
2021/07/07 09:57:16;;;;;;;4.00;1.40;;;21.50;69.40;;;;;;4957837;28;20036;-75
2021/07/07 09:59:43;;;;;;;1.50;1.15;;;21.50;69.40;;;;;;4956398;29;20028;-75
2021/07/07 10:02:09;;;;;;;2.50;1.20;;;21.50;69.40;;;;;;4957381;28;20035;-75
2021/07/07 10:04:40;;;;;;;1.92;1.08;;;21.50;69.60;;;;;;4958098;28;20042;-75
2021/07/07 10:07:07;;;;;;;;;;;21.40;69.40;;;;;;4956153;29;20069;-75
2021/07/07 10:09:37;;;;;;;5.75;1.55;;;21.50;69.50;;;;;;4956185;29;20258;-75
2021/07/07 10:12:03;;;;;;;5.22;1.42;;;21.60;69.20;;;;;;4955670;29;20023;-76
2021/07/07 10:14:29;;;;;;;2.97;1.00;;;21.60;69.30;;;;;;4956127;29;20058;-75
2021/07/07 10:16:55;;;;;;;4.22;1.13;;;21.60;69.20;;;;;;4955515;29;20077;-76
2021/07/07 10:19:21;;;;;;;3.78;1.90;;;21.60;69.00;;;;;;4955855;28;20043;-75
2021/07/07 10:21:48;;;;;;;4.13;1.95;;;21.60;68.70;;;;;;4956786;28;20035;-75
2021/07/07 10:24:18;;;;;;;8.75;1.92;;;21.60;68.50;;;;;;4957433;28;20029;-76
2021/07/07 10:26:45;;;;;;;2.83;1.40;;;21.50;68.30;;;;;;4956018;29;20206;-76
2021/07/07 10:29:14;;;;;;;3.42;1.65;;;21.60;68.10;;;;;;4957167;28;20031;-75
2021/07/07 10:31:53;;;;;;;3.38;1.20;;;21.80;67.50;;;;;;4955691;29;20105;-75
2021/07/07 10:34:21;;;;;;;1.60;1.10;;;21.90;67.00;;;;;;4955679;29;20154;-76
2021/07/07 10:36:48;;;;;;;3.38;1.00;;;22.10;66.80;;;;;;4955094;29;20023;-76
2021/07/07 10:39:15;;;;;;;3.08;1.40;;;22.30;66.70;;;;;;4956848;28;20098;-76
2021/07/07 10:44:22;;;;;;;6.57;1.45;;;22.20;65.80;;;;;;4956227;29;20387;-75
2021/07/07 10:46:59;;;;;;;3.55;1.58;;;22.20;65.90;;;;;;4954910;29;20114;-75
2021/07/07 10:49:30;;;;;;;1.95;1.40;;;22.10;66.20;;;;;;4955616;29;20031;-75
2021/07/07 10:51:57;;;;;;;;;;;22.20;65.50;;;;;;4955247;29;20352;-75
2021/07/07 10:54:23;;;;;;;2.13;1.20;;;22.30;65.10;;;;;;4955335;29;19911;-75
2021/07/07 10:56:50;;;;;;;1.55;1.20;;;22.40;65.30;;;;;;4956108;29;20043;-75
2021/07/07 10:59:37;;;;;;;2.58;1.15;;;22.60;64.70;;;;;;4955240;29;20328;-75
2021/07/07 11:02:15;;;;;;;3.35;1.08;;;22.80;64.30;;;;;;4954622;29;20126;-75
2021/07/07 11:04:46;;;;;;;3.00;1.13;;;22.90;64.10;;;;;;4955046;28;20106;-75
2021/07/07 11:07:41;;;;;;;2.30;1.13;;;23.00;63.90;;;;;;4954640;29;20034;-77
2021/07/07 11:10:21;;;;;;;2.20;1.00;;;23.10;63.80;;;;;;4937965;29;20039;-75
2021/07/07 11:12:52;;;;;;;4.18;1.40;;;23.00;63.80;;;;;;4955191;29;20101;-77
2021/07/07 11:15:22;;;;;;;5.18;1.63;;;23.00;64.20;;;;;;4954919;29;20467;-77
2021/07/07 11:17:54;;;;;;;2.88;1.15;;;22.80;64.30;;;;;;4956454;28;20087;-74
2021/07/07 11:20:21;;;;;;;3.40;1.05;;;22.70;64.60;;;;;;4954871;28;20039;-76
2021/07/07 11:22:59;;;;;;;2.85;1.38;;;22.50;64.40;;;;;;4954953;29;20034;-77
2021/07/07 11:25:26;;;;;;;3.15;1.27;;;22.50;64.60;;;;;;4954845;29;20502;-77
2021/07/07 11:27:53;;;;;;;1.85;1.10;;;22.60;64.50;;;;;;4955658;28;20019;-76
2021/07/07 11:30:19;;;;;;;3.65;1.25;;;22.70;64.10;;;;;;4956124;28;20034;-77
2021/07/07 11:32:51;;;;;;;2.53;1.23;;;22.90;63.90;;;;;;4956014;28;20027;-77
2021/07/07 11:35:28;;;;;;;1.65;1.13;;;23.10;63.50;;;;;;4956391;28;20063;-77
2021/07/07 11:37:56;;;;;;;1.95;0.88;;;23.20;63.10;;;;;;4954019;29;20543;-74
2021/07/07 11:40:23;;;;;;;3.20;1.15;;;23.30;62.90;;;;;;4956049;28;20034;-75
2021/07/07 11:43:04;;;;;;;2.42;1.27;;;23.30;62.80;;;;;;4956076;28;20501;-76
2021/07/07 11:45:37;;;;;;;1.05;0.95;;;23.40;62.70;;;;;;4954757;29;20023;-76
2021/07/07 11:48:10;;;;;;;5.10;1.40;;;23.40;62.50;;;;;;4953478;29;20019;-76
2021/07/07 11:50:36;;;;;;;2.25;1.13;;;23.50;62.10;;;;;;4953951;29;20023;-75
2021/07/07 11:53:05;;;;;;;2.35;1.15;;;23.60;61.80;;;;;;4955173;28;20031;-75
2021/07/07 11:55:54;;;;;;;3.67;1.30;;;23.70;61.30;;;;;;4954259;29;20026;-75
2021/07/07 11:58:49;;;;;;;2.92;1.10;;;23.80;61.00;;;;;;4954231;29;20027;-75
2021/07/07 12:01:20;;;;;;;4.20;1.38;;;23.90;60.50;;;;;;4953794;29;20038;-76
2021/07/07 12:03:57;;;;;;;2.05;1.20;;;23.90;60.50;;;;;;4953805;29;20027;-76
2021/07/07 12:06:33;;;;;;;2.45;1.20;;;24.10;60.60;;;;;;4955517;28;20028;-76
2021/07/07 12:08:59;;;;;;;2.97;1.20;;;24.10;60.50;;;;;;4953541;29;20383;-76
2021/07/07 12:11:25;;;;;;;3.28;1.27;;;24.10;60.40;;;;;;4954036;29;20381;-76
2021/07/07 12:13:53;;;;;;;2.67;1.10;;;24.30;60.50;;;;;;4954041;29;20118;-75
2021/07/07 12:16:21;;;;;;;1.75;1.17;;;24.50;60.10;;;;;;4954498;28;20038;-76
2021/07/07 12:18:50;;;;;;;1.63;1.10;;;24.70;58.90;;;;;;4956774;28;20026;-76
2021/07/07 12:21:24;;;;;;;1.77;1.10;;;24.80;58.70;;;;;;4975418;28;20497;-75
2021/07/07 12:23:53;;;;;;;2.63;1.00;;;25.00;57.30;;;;;;4976506;28;20030;-75
2021/07/07 12:26:31;;;;;;;1.42;0.80;;;24.90;57.40;;;;;;4993842;28;20018;-76
2021/07/07 12:29:00;;;;;;;2.25;1.00;;;24.90;57.80;;;;;;4975804;28;20192;-76
2021/07/07 12:31:32;;;;;;;3.28;1.08;;;25.00;57.60;;;;;;4993626;28;20022;-76
2021/07/07 12:33:58;;;;;;;1.92;0.93;;;25.00;57.30;;;;;;4975741;28;20037;-76
2021/07/07 12:36:29;;;;;;;2.08;1.40;;;25.00;57.30;;;;;;4976156;28;20069;-77
2021/07/07 12:38:57;;;;;;;0.93;0.82;;;24.90;57.10;;;;;;4975530;28;20038;-76
2021/07/07 12:41:38;;;;;;;1.92;0.90;;;25.00;57.10;;;;;;4993303;28;20117;-75
2021/07/07 12:44:15;;;;;;;2.22;1.20;;;25.00;56.40;;;;;;4992827;28;20022;-76
2021/07/07 12:46:57;;;;;;;1.73;0.85;;;25.10;56.30;;;;;;4993654;28;20069;-75
2021/07/07 12:49:50;;;;;;;2.00;1.17;;;25.20;56.10;;;;;;4976210;28;20037;-75
2021/07/07 12:52:20;;;;;;;3.42;1.30;;;25.30;56.00;;;;;;4974819;28;20034;-76
2021/07/07 12:55:12;;;;;;;3.40;1.63;;;25.10;56.00;;;;;;4993029;28;20554;-76